This is the latest recevied weather packets stored in our database for station/object KB1YYC. If no packets are shown the sender has not sent any weather packets the latest 10 day(s).
| Time | Temp. | Humidity | Pressure | Rain* | Wind** | Luminosity | Snow |
|---|---|---|---|---|---|---|---|
| 1778008505 | 25° C | 46% | 1004.3 hPa | 0 mm | - | 346 W/m² | - |
| 1778008203 | 25° C | 45% | 1004.3 hPa | 0 mm | - | 224 W/m² | - |
| 1778007897 | 25° C | 45% | 1004.5 hPa | 0 mm | - | 509 W/m² | - |
| 1778007593 | 24.44° C | 46% | 1004.5 hPa | 0 mm | - | 404 W/m² | - |
| 1778007290 | 24.44° C | 47% | 1004.9 hPa | 0 mm | - | 158 W/m² | - |
| 1778006986 | 23.89° C | 48% | 1004.9 hPa | 0 mm | - | 458 W/m² | - |
| 1778006683 | 23.89° C | 48% | 1004.9 hPa | 0 mm | - | 152 W/m² | - |
| 1778006380 | 24.44° C | 48% | 1005 hPa | 0 mm | - | 122 W/m² | - |
| 1778006077 | 24.44° C | 47% | 1004.9 hPa | 0 mm | - | 616 W/m² | - |
| 1778005773 | 24.44° C | 47% | 1005.1 hPa | 0 mm | - | 203 W/m² | - |
| 1778005471 | 26.11° C | 44% | 1005 hPa | 0 mm | - | 157 W/m² | - |
| 1778005167 | 27.22° C | 41% | 1005.3 hPa | 0 mm | - | 389 W/m² | - |
| 1778004865 | 28.33° C | 34% | 1005.3 hPa | 0 mm | - | 369 W/m² | - |
| 1778004561 | 28.33° C | 35% | 1005 hPa | 0 mm | - | 699 W/m² | - |
| 1778004257 | 28.33° C | 35% | 1005 hPa | 0 mm | - | 619 W/m² | - |
| 1778003954 | 28.33° C | 35% | 1005.3 hPa | 0 mm | - | 175 W/m² | - |
| 1778003650 | 28.89° C | 34% | 1005.4 hPa | 0 mm | - | 705 W/m² | - |
| 1778003347 | 28.33° C | 36% | 1005.5 hPa | 0 mm | - | 702 W/m² | - |
| 1778003045 | 28.33° C | 35% | 1005.3 hPa | 0 mm | - | 678 W/m² | - |
| 1778002741 | 27.22° C | 37% | 1005.4 hPa | 0 mm | - | 659 W/m² | - |
| 1778002437 | 27.22° C | 37% | 1005.4 hPa | 0 mm | - | 705 W/m² | - |
| 1778002134 | 27.78° C | 36% | 1005.7 hPa | 0 mm | - | 689 W/m² | - |
| 1778001832 | 27.78° C | 35% | 1005.6 hPa | 0 mm | - | 643 W/m² | - |
| 1778001531 | 28.33° C | 35% | 1005.7 hPa | 0 mm | - | 652 W/m² | - |
| 1778001228 | 27.78° C | 36% | 1005.7 hPa | 0 mm | - | 664 W/m² | - |
* Rain latest hour (hover to see other rain measurements)
** Current wind speed in m/s (hover to see current wind gust speed)